クライストチャーチ の空港の天気 - METARとTAF

クライストチャーチ国際空港 ( NZCH / CHC ) - ニュージーランド クライストチャーチ
飛行場実況気象(Metar)
観測時間01/20 14:30 NZDT (01/20 01:30 UTC)
風向・風速東 7m/s
視程10km以上
天気現象
少しの雲 雲底高度 1520m
全天の4割程度の雲 雲底高度 1980m
気温17℃
湿度52%
気圧1004hPa
METARNZCH 200130Z AUTO 08014KT 050V120 9999 FEW050/// SCT065/// 17/07 Q1004 NOSIG
過去の天気等 Google飛行場航空写真 Wunderground天気予報

過去48時間のMETAR

飛行場予報(TAF)
発表時間: 1/20 12:02 NZDT (1/19 23:02 UTC)
予報対象時間: 20日13時 NZDT ~ 21日13時 NZDT
風向・風速北東 3m/s
視程10km以上
全天の4割程度の雲 雲底高度 1,520m
20日17時 NZDT ~ 20日18時 NZDT に徐々に
風向・風速東北東 8m/s
21日1時 NZDT ~ 21日3時 NZDT に徐々に
風向・風速北 3m/s
21日11時 NZDT ~ 21日13時 NZDT に徐々に
風向・風速東北東 6m/s
TAF NZCH 192302Z 2000/2100 04005KT 9999 SCT050
BECMG 2004/2005 06015KT
BECMG 2012/2014 36005KT
BECMG 2022/2100 06012KT